Date,TemperatureHighF,TemperatureAvgF,TemperatureLowF,DewpointHighF,DewpointAvgF,DewpointLowF,HumidityHigh,HumidityAvg,HumidityLow,PressureMaxIn,PressureMinIn,WindSpeedMaxMPH,WindSpeedAvgMPH,GustSpeedMaxMPH,PrecipitationSumIn
2014-2-1,48,39,29,36,26,22,87,62,44,30.03,29.73,14,4,14,0.02
2014-2-2,43,32,23,39,28,18,92,86,75,30.11,29.77,15,6,18,0.11
2014-2-3,27,22,15,18,13,9,82,68,47,30.28,30.02,18,4,18,0.00
2014-2-4,29,22,12,21,13,7,88,70,48,30.34,29.92,11,2,12,0.00
2014-2-5,28,24,17,25,20,11,91,86,76,30.20,29.53,21,5,23,0.00
2014-2-6,22,17,10,13,10,6,82,74,65,30.31,30.20,14,2,15,0.00
2014-2-7,16,8,-2,5,-5,-10,72,57,40,30.34,30.24,11,2,12,0.00
2014-2-8,19,10,0,11,-2,-7,79,59,37,30.29,30.10,2,0,8,0.00
2014-2-9,25,19,16,20,14,8,86,79,68,30.09,29.87,7,2,20,0.00
2014-2-10,20,14,7,8,4,0,81,65,51,30.29,30.08,13,2,13,0.00
2014-2-11,19,8,-4,7,-1,-10,78,68,53,30.41,30.27,10,1,10,0.00
2014-2-12,30,15,-4,6,1,-11,79,56,32,30.38,29.97,11,2,11,0.00
2014-2-13,34,24,15,24,12,5,68,60,52,29.97,29.47,12,2,12,0.03
2014-2-14,31,27,22,21,16,10,83,65,55,29.64,29.37,15,3,20,0.00
2014-2-15,24,19,8,18,11,1,84,71,48,30.01,29.62,16,5,16,0.01
2014-2-16,24,16,6,18,10,0,82,77,72,30.25,29.89,13,2,15,0.00
2014-2-17,34,19,3,32,9,-2,93,67,35,30.31,29.61,22,6,22,0.00
2014-2-18,42,34,25,32,24,20,94,69,46,29.97,29.62,21,5,25,0.05
2014-2-19,48,40,29,37,29,21,85,65,44,30.00,29.55,22,4,22,0.01
2014-2-20,54,38,24,46,32,20,90,79,62,30.01,29.50,18,6,18,0.30
2014-2-21,52,41,35,49,30,14,91,66,37,29.82,29.39,23,6,24,0.25
2014-2-22,50,41,34,30,22,14,78,47,35,29.91,29.76,16,5,20,0.00
2014-2-23,39,34,24,31,24,12,87,69,42,29.98,29.88,13,2,14,0.00
2014-2-24,29,23,20,12,9,4,65,54,35,30.08,29.96,22,3,24,0.00
2014-2-25,24,20,18,16,11,8,81,68,55,30.05,29.90,12,3,15,0.00
2014-2-26,22,15,11,14,1,-4,76,53,41,30.02,29.67,21,4,24,0.00
2014-2-27,19,13,3,11,0,-10,79,56,44,30.10,29.54,26,4,32,0.00
2014-2-28,26,13,0,2,-4,-9,73,49,27,30.26,30.06,13,4,13,0.00